createdAt,value
2022-08-28T00:00:17.424Z,3.53
2022-08-28T00:02:46.589Z,3.30
2022-08-28T00:05:15.985Z,3.40
2022-08-28T00:07:47.486Z,3.70
2022-08-28T00:10:17.267Z,3.80
2022-08-28T00:12:45.639Z,3.70
2022-08-28T00:15:17.343Z,3.70
2022-08-28T00:17:44.870Z,3.88
2022-08-28T00:20:13.640Z,3.75
2022-08-28T00:22:41.300Z,3.30
2022-08-28T00:25:10.453Z,3.72
2022-08-28T00:27:55.292Z,3.38
2022-08-28T00:30:31.376Z,3.85
2022-08-28T00:33:02.431Z,3.15
2022-08-28T00:35:30.305Z,3.45
2022-08-28T00:37:57.516Z,3.55
2022-08-28T00:40:32.523Z,3.47
2022-08-28T00:43:02.846Z,3.58
2022-08-28T00:45:31.917Z,3.08
2022-08-28T00:48:00.951Z,3.65
2022-08-28T00:50:51.685Z,3.25
2022-08-28T00:53:19.715Z,3.28
2022-08-28T00:55:50.377Z,3.40
2022-08-28T00:58:18.000Z,3.00
2022-08-28T01:01:03.326Z,3.30
2022-08-28T01:03:29.889Z,3.38
2022-08-28T01:05:57.707Z,3.17
2022-08-28T01:08:24.437Z,3.58
2022-08-28T01:10:55.569Z,3.03
2022-08-28T01:13:24.232Z,4.30
2022-08-28T01:15:54.529Z,3.50
2022-08-28T01:18:22.467Z,4.00
2022-08-28T01:20:58.880Z,3.15
2022-08-28T01:23:51.595Z,3.67
2022-08-28T01:26:18.227Z,3.00
2022-08-28T01:28:45.567Z,4.18
2022-08-28T01:31:14.812Z,3.30
2022-08-28T01:33:42.809Z,3.35
2022-08-28T01:36:12.211Z,3.08
2022-08-28T01:38:40.504Z,3.10
2022-08-28T01:41:07.438Z,3.30
2022-08-28T01:43:34.038Z,3.33
2022-08-28T01:46:05.010Z,3.42
2022-08-28T01:48:35.073Z,3.60
2022-08-28T01:51:03.047Z,3.17
2022-08-28T01:53:33.109Z,3.15
2022-08-28T01:56:01.779Z,4.30
2022-08-28T01:58:30.414Z,3.50
2022-08-28T02:00:57.653Z,3.53
2022-08-28T02:03:24.526Z,3.70
2022-08-28T02:05:51.369Z,3.53
2022-08-28T02:08:18.304Z,3.03
2022-08-28T02:10:47.117Z,3.63
2022-08-28T02:13:14.906Z,3.70
2022-08-28T02:15:42.431Z,3.45
2022-08-28T02:18:27.997Z,3.65
2022-08-28T02:20:54.603Z,3.70
2022-08-28T02:23:22.031Z,3.65
2022-08-28T02:25:49.848Z,3.40
2022-08-28T02:28:18.604Z,3.17
2022-08-28T02:30:46.047Z,3.65
2022-08-28T02:33:12.802Z,3.30
2022-08-28T02:35:42.528Z,3.63
2022-08-28T02:38:10.177Z,3.08
2022-08-28T02:40:37.324Z,3.10
2022-08-28T02:43:05.429Z,3.22
2022-08-28T02:45:32.790Z,3.13
2022-08-28T02:48:01.598Z,3.70
2022-08-28T02:50:29.955Z,3.53
2022-08-28T02:52:57.129Z,3.17
2022-08-28T02:55:24.785Z,3.53
2022-08-28T02:57:52.850Z,3.35
2022-08-28T03:00:23.279Z,3.65
2022-08-28T03:02:51.186Z,3.40
2022-08-28T03:05:21.270Z,3.63
2022-08-28T03:07:53.240Z,3.60
2022-08-28T03:10:20.499Z,3.35
2022-08-28T03:12:47.730Z,3.20
2022-08-28T03:15:14.502Z,3.63
2022-08-28T03:17:41.235Z,3.17
2022-08-28T03:24:01.621Z,3.40
2022-08-28T03:26:28.631Z,3.30
2022-08-28T03:28:57.561Z,3.53
2022-08-28T03:31:29.373Z,3.47
2022-08-28T03:33:57.591Z,3.53
2022-08-28T03:36:26.407Z,3.47
2022-08-28T03:38:56.664Z,3.45
2022-08-28T03:41:26.995Z,3.70
2022-08-28T03:43:53.651Z,3.60
2022-08-28T03:46:23.910Z,3.60
2022-08-28T03:48:51.702Z,3.20
2022-08-28T03:51:25.495Z,3.38
2022-08-28T03:53:58.110Z,2.83
2022-08-28T03:56:27.034Z,3.58
2022-08-28T03:58:57.440Z,3.72
2022-08-28T04:01:26.085Z,3.60
2022-08-28T04:03:52.814Z,3.50
2022-08-28T04:06:19.888Z,3.10
2022-08-28T04:08:47.972Z,4.15
2022-08-28T04:11:15.699Z,3.92
2022-08-28T04:13:42.324Z,3.97
2022-08-28T04:16:11.897Z,3.33
2022-08-28T04:18:58.044Z,3.60
2022-08-28T04:21:26.104Z,3.60
2022-08-28T04:23:54.001Z,3.63
2022-08-28T04:26:24.151Z,3.00
2022-08-28T04:28:52.630Z,3.20
2022-08-28T04:31:32.042Z,3.50
2022-08-28T04:34:01.708Z,3.45
2022-08-28T04:36:29.124Z,3.35
2022-08-28T04:38:57.702Z,2.95
2022-08-28T04:41:24.342Z,3.53
2022-08-28T04:43:52.787Z,3.30
2022-08-28T04:46:20.492Z,3.17
2022-08-28T04:48:47.253Z,3.70
2022-08-28T04:51:15.143Z,3.47
2022-08-28T04:53:43.086Z,3.22
2022-08-28T04:56:12.336Z,3.22
2022-08-28T04:58:40.332Z,3.08
2022-08-28T05:01:11.295Z,2.85
2022-08-28T05:03:38.192Z,3.03
2022-08-28T05:06:05.439Z,3.63
2022-08-28T05:08:32.148Z,2.90
2022-08-28T05:11:13.798Z,3.67
2022-08-28T05:13:57.411Z,3.03
2022-08-28T05:16:24.279Z,3.17
2022-08-28T05:18:50.987Z,3.40
2022-08-28T05:21:21.752Z,2.78
2022-08-28T05:23:49.917Z,2.80
2022-08-28T05:26:18.443Z,2.88
2022-08-28T05:28:45.140Z,2.95
2022-08-28T05:31:16.088Z,3.28
2022-08-28T05:33:47.453Z,2.97
2022-08-28T05:36:15.095Z,2.65
2022-08-28T05:38:42.067Z,2.92
2022-08-28T05:41:08.914Z,3.05
2022-08-28T05:43:36.154Z,2.97
2022-08-28T05:46:07.534Z,2.88
2022-08-28T05:48:38.309Z,2.85
2022-08-28T05:51:11.594Z,2.85
2022-08-28T05:53:41.225Z,3.00
2022-08-28T05:56:13.619Z,2.67
2022-08-28T05:58:41.703Z,2.80
2022-08-28T06:01:10.517Z,3.00
2022-08-28T06:03:38.637Z,2.90
2022-08-28T06:06:06.260Z,2.50
2022-08-28T06:08:33.139Z,2.88
2022-08-28T06:11:02.227Z,3.08
2022-08-28T06:13:30.432Z,2.70
2022-08-28T06:15:57.498Z,2.85
2022-08-28T06:18:25.737Z,3.15
2022-08-28T06:20:53.488Z,2.90
2022-08-28T06:23:24.029Z,2.83
2022-08-28T06:25:52.199Z,2.88
2022-08-28T06:28:23.951Z,2.85
2022-08-28T06:31:15.744Z,2.30
2022-08-28T06:33:38.800Z,2.72
2022-08-28T06:36:25.190Z,2.50
2022-08-28T06:38:51.835Z,2.33
2022-08-28T06:41:19.272Z,2.38
2022-08-28T06:43:45.831Z,2.35
2022-08-28T06:46:12.448Z,2.42
2022-08-28T06:48:40.272Z,2.42
2022-08-28T06:51:09.621Z,2.40
2022-08-28T06:53:55.031Z,2.60
2022-08-28T06:56:26.389Z,2.65
2022-08-28T06:58:56.403Z,2.25
2022-08-28T07:01:35.365Z,2.47
2022-08-28T07:04:07.337Z,2.45
2022-08-28T07:06:36.807Z,2.08
2022-08-28T07:09:06.021Z,2.53
2022-08-28T07:11:33.852Z,2.58
2022-08-28T07:14:01.545Z,2.42
2022-08-28T07:16:31.945Z,2.40
2022-08-28T07:19:02.607Z,2.00
2022-08-28T07:21:31.125Z,2.30
2022-08-28T07:23:58.203Z,2.13
2022-08-28T07:26:26.499Z,2.08
2022-08-28T07:28:59.531Z,2.17
2022-08-28T07:31:40.984Z,2.00
2022-08-28T07:34:09.493Z,2.10
2022-08-28T07:36:36.525Z,1.67
2022-08-28T07:39:04.992Z,2.20
2022-08-28T07:41:35.592Z,1.83
2022-08-28T07:44:22.536Z,1.70
2022-08-28T07:46:53.756Z,1.88
2022-08-28T07:49:20.529Z,1.63
2022-08-28T07:51:47.297Z,2.10
2022-08-28T07:54:17.719Z,1.95
2022-08-28T07:56:45.412Z,1.95
2022-08-28T07:59:16.595Z,1.95
2022-08-28T08:01:46.550Z,1.90
2022-08-28T08:04:21.975Z,2.20
2022-08-28T08:06:49.092Z,1.60
2022-08-28T08:09:18.220Z,1.85
2022-08-28T08:12:05.632Z,1.80
2022-08-28T08:14:32.387Z,1.80
2022-08-28T08:17:02.183Z,2.28
2022-08-28T08:19:29.105Z,1.95
2022-08-28T08:21:56.363Z,1.90
2022-08-28T08:24:26.727Z,1.75
2022-08-28T08:26:59.714Z,1.88
2022-08-28T08:29:31.416Z,1.98
2022-08-28T08:32:05.749Z,1.83
2022-08-28T08:34:36.534Z,1.90
2022-08-28T08:37:03.632Z,2.08
2022-08-28T08:39:31.736Z,1.52
2022-08-28T08:42:01.078Z,1.77
2022-08-28T08:44:39.063Z,1.52
2022-08-28T08:47:20.183Z,1.90
2022-08-28T08:49:54.579Z,5.18
2022-08-28T08:52:35.427Z,1.67
2022-08-28T08:55:45.130Z,1.67
2022-08-28T08:58:21.558Z,1.70
2022-08-28T09:01:09.659Z,1.52
2022-08-28T09:03:55.406Z,1.50
2022-08-28T09:06:51.910Z,1.92
2022-08-28T09:09:35.125Z,1.52
2022-08-28T09:12:16.218Z,1.50
2022-08-28T09:15:26.798Z,1.60
2022-08-28T09:18:08.166Z,1.80
2022-08-28T09:20:34.948Z,1.60
2022-08-28T09:23:02.057Z,1.60
2022-08-28T09:25:47.689Z,1.70
2022-08-28T09:28:19.717Z,1.70
2022-08-28T09:30:58.546Z,1.42
2022-08-28T09:33:41.889Z,1.55
2022-08-28T09:36:24.138Z,1.50
2022-08-28T09:39:07.706Z,1.70
2022-08-28T09:42:02.875Z,1.90
2022-08-28T09:44:30.158Z,1.52
2022-08-28T09:46:56.866Z,1.50
2022-08-28T09:49:30.805Z,1.55
2022-08-28T09:52:02.025Z,1.50
2022-08-28T09:54:48.430Z,1.65
2022-08-28T09:57:15.067Z,1.67
2022-08-28T09:59:42.295Z,1.60
2022-08-28T10:02:40.678Z,1.52
2022-08-28T10:05:12.859Z,1.73
2022-08-28T10:07:56.105Z,1.45
2022-08-28T10:10:40.518Z,1.48
2022-08-28T10:13:21.100Z,1.63
2022-08-28T10:16:35.479Z,1.52
2022-08-28T10:19:35.714Z,1.88
2022-08-28T10:22:30.453Z,1.52
2022-08-28T10:25:16.603Z,1.58
2022-08-28T10:27:55.293Z,1.55
2022-08-28T10:30:46.670Z,1.50
2022-08-28T10:33:39.708Z,1.50
2022-08-28T10:36:33.221Z,1.70
2022-08-28T10:39:14.266Z,1.67
2022-08-28T10:42:00.071Z,1.40
2022-08-28T10:44:58.856Z,1.27
2022-08-28T10:47:29.571Z,1.50
2022-08-28T10:50:02.001Z,1.58
2022-08-28T10:52:38.635Z,1.50
2022-08-28T10:55:07.803Z,1.63
2022-08-28T10:57:47.265Z,1.40
2022-08-28T11:00:18.568Z,1.42
2022-08-28T11:02:50.120Z,1.70
2022-08-28T11:05:23.230Z,1.52
2022-08-28T11:07:54.579Z,1.40
2022-08-28T11:10:37.314Z,1.52
2022-08-28T11:13:06.870Z,1.55
2022-08-28T11:15:37.133Z,1.65
2022-08-28T11:18:16.244Z,1.58
2022-08-28T11:21:19.879Z,1.67
2022-08-28T11:27:00.424Z,1.25
2022-08-28T11:29:57.977Z,1.40
2022-08-28T11:32:52.488Z,1.38
2022-08-28T11:35:31.012Z,1.58
2022-08-28T11:37:58.490Z,1.52
2022-08-28T11:40:31.809Z,1.50
2022-08-28T11:43:17.057Z,1.40
2022-08-28T11:45:46.561Z,1.60
2022-08-28T11:48:25.812Z,1.38
2022-08-28T11:51:09.625Z,1.42
2022-08-28T11:53:54.755Z,1.50
2022-08-28T11:57:01.704Z,1.30
2022-08-28T11:59:59.581Z,1.80
2022-08-28T12:02:41.205Z,1.63
2022-08-28T12:05:31.749Z,1.50
2022-08-28T12:08:00.716Z,1.58
2022-08-28T12:10:32.401Z,1.40
2022-08-28T12:13:01.798Z,1.60
2022-08-28T12:15:28.331Z,1.20
2022-08-28T12:17:57.959Z,1.27
2022-08-28T12:20:49.161Z,1.50
2022-08-28T12:23:37.085Z,1.33
2022-08-28T12:26:06.722Z,1.30
2022-08-28T12:28:44.841Z,1.60
2022-08-28T12:31:45.948Z,1.83
2022-08-28T12:34:30.937Z,1.42
2022-08-28T12:37:02.394Z,1.77
2022-08-28T12:39:32.511Z,1.77
2022-08-28T12:42:00.212Z,1.70
2022-08-28T12:44:31.130Z,2.08
2022-08-28T12:46:59.060Z,1.30
2022-08-28T12:49:37.026Z,1.63
2022-08-28T12:52:25.741Z,1.63
2022-08-28T12:54:55.458Z,1.42
2022-08-28T12:57:25.422Z,1.77
2022-08-28T12:59:54.972Z,1.70
2022-08-28T13:02:36.361Z,1.90
2022-08-28T13:05:12.113Z,1.98
2022-08-28T13:07:45.467Z,1.42
2022-08-28T13:10:36.536Z,1.55
2022-08-28T13:13:08.130Z,1.58
2022-08-28T13:15:46.982Z,1.98
2022-08-28T13:19:12.335Z,1.85
2022-08-28T13:21:47.959Z,1.70
2022-08-28T13:24:21.986Z,1.70
2022-08-28T13:27:15.788Z,1.70
2022-08-28T13:30:03.720Z,2.13
2022-08-28T13:32:33.386Z,1.60
2022-08-28T13:35:09.196Z,1.60
2022-08-28T13:37:48.906Z,1.40
2022-08-28T13:40:53.425Z,1.40
2022-08-28T13:43:11.184Z,1.80
2022-08-28T13:45:44.039Z,1.58
2022-08-28T13:48:15.843Z,1.70
2022-08-28T13:50:47.227Z,1.45
2022-08-28T13:53:17.097Z,1.40
2022-08-28T13:55:45.414Z,1.50
2022-08-28T13:58:13.858Z,1.70
2022-08-28T14:00:47.003Z,1.33
2022-08-28T14:03:33.413Z,2.00
2022-08-28T14:06:00.129Z,1.70
2022-08-28T14:08:26.928Z,1.55
2022-08-28T14:10:53.561Z,1.83
2022-08-28T14:13:23.099Z,1.80
2022-08-28T14:15:49.770Z,1.77
2022-08-28T14:18:18.163Z,1.58
2022-08-28T14:20:44.799Z,1.88
2022-08-28T14:23:11.767Z,1.50
2022-08-28T14:25:47.390Z,1.52
2022-08-28T14:28:15.007Z,1.48
2022-08-28T14:30:48.806Z,1.80
2022-08-28T14:33:18.747Z,1.90
2022-08-28T14:35:47.470Z,1.60
2022-08-28T14:38:14.340Z,1.92
2022-08-28T14:40:43.150Z,1.75
2022-08-28T14:43:11.940Z,1.55
2022-08-28T14:45:56.883Z,1.67
2022-08-28T14:48:23.575Z,1.90
2022-08-28T14:51:27.806Z,1.83
2022-08-28T14:53:54.683Z,1.92
2022-08-28T14:56:22.415Z,1.63
2022-08-28T14:58:49.155Z,1.70
2022-08-28T15:01:39.596Z,1.90
2022-08-28T15:04:11.527Z,1.52
2022-08-28T15:06:42.455Z,1.65
2022-08-28T15:09:11.525Z,1.80
2022-08-28T15:11:39.300Z,1.52
2022-08-28T15:14:06.511Z,1.55
2022-08-28T15:16:36.659Z,1.80
2022-08-28T15:19:04.148Z,1.80
2022-08-28T15:21:38.469Z,1.65
2022-08-28T15:24:06.859Z,1.67
2022-08-28T15:26:34.257Z,2.00
2022-08-28T15:31:54.864Z,2.03
2022-08-28T15:34:25.132Z,2.20
2022-08-28T15:36:55.805Z,2.20
2022-08-28T15:39:46.470Z,1.85
2022-08-28T15:42:13.811Z,2.63
2022-08-28T15:44:42.062Z,2.00
2022-08-28T15:47:09.333Z,1.70
2022-08-28T15:49:44.657Z,1.98
2022-08-28T15:52:18.276Z,1.65
2022-08-28T15:54:45.035Z,1.88
2022-08-28T15:57:11.662Z,1.70
2022-08-28T15:59:49.177Z,1.77
2022-08-28T16:02:18.073Z,1.95
2022-08-28T16:04:44.925Z,1.52
2022-08-28T16:07:11.517Z,1.60
2022-08-28T16:09:38.188Z,1.77
2022-08-28T16:12:05.101Z,1.40
2022-08-28T16:14:33.154Z,1.70
2022-08-28T16:17:05.521Z,2.00
2022-08-28T16:19:37.159Z,2.03
2022-08-28T16:22:03.802Z,1.60
2022-08-28T16:24:31.457Z,1.42
2022-08-28T16:26:58.038Z,1.80
2022-08-28T16:29:24.731Z,1.55
2022-08-28T16:31:51.417Z,1.50
2022-08-28T16:34:19.571Z,1.58
2022-08-28T16:36:50.534Z,1.40
2022-08-28T16:39:18.041Z,1.50
2022-08-28T16:41:49.881Z,1.73
2022-08-28T16:44:26.165Z,1.33
2022-08-28T16:49:21.359Z,1.40
2022-08-28T16:51:48.058Z,1.05
2022-08-28T16:54:16.217Z,1.35
2022-08-28T16:56:42.862Z,1.42
2022-08-28T16:59:10.483Z,1.55
2022-08-28T17:01:40.729Z,1.17
2022-08-28T17:04:08.149Z,1.27
2022-08-28T17:06:34.956Z,1.10
2022-08-28T17:09:01.764Z,1.55
2022-08-28T17:11:31.113Z,1.70
2022-08-28T17:13:59.372Z,2.20
2022-08-28T17:16:32.122Z,1.88
2022-08-28T17:18:59.519Z,1.75
2022-08-28T17:21:45.221Z,1.70
2022-08-28T17:24:12.695Z,1.17
2022-08-28T17:26:40.639Z,2.13
2022-08-28T17:29:26.152Z,1.15
2022-08-28T17:31:53.284Z,1.30
2022-08-28T17:34:21.417Z,1.05
2022-08-28T17:36:49.325Z,1.10
2022-08-28T17:39:16.279Z,1.00
2022-08-28T17:41:43.447Z,0.85
2022-08-28T17:44:10.401Z,1.60
2022-08-28T17:46:38.300Z,1.17
2022-08-28T17:49:06.803Z,1.10
2022-08-28T17:51:43.234Z,1.02
2022-08-28T17:54:19.617Z,1.30
2022-08-28T17:56:46.509Z,1.17
2022-08-28T17:59:15.185Z,0.93
2022-08-28T18:01:45.028Z,1.17
2022-08-28T18:04:12.971Z,0.98
2022-08-28T18:06:40.488Z,1.65
2022-08-28T18:09:09.245Z,1.50
2022-08-28T18:11:36.397Z,1.27
2022-08-28T18:14:04.410Z,0.95
2022-08-28T18:16:32.846Z,1.20
2022-08-28T18:19:00.771Z,1.10
2022-08-28T18:21:28.677Z,1.10
2022-08-28T18:23:55.349Z,1.52
2022-08-28T18:26:22.003Z,1.50
2022-08-28T18:28:51.551Z,0.88
2022-08-28T18:31:18.563Z,1.10
2022-08-28T18:33:45.359Z,1.30
2022-08-28T18:36:13.826Z,0.88
2022-08-28T18:38:42.051Z,1.10
2022-08-28T18:41:10.277Z,1.23
2022-08-28T18:43:37.324Z,0.98
2022-08-28T18:46:05.813Z,1.08
2022-08-28T18:48:32.747Z,1.10
2022-08-28T18:50:59.336Z,1.23
2022-08-28T18:53:26.578Z,1.02
2022-08-28T18:55:55.173Z,1.00
2022-08-28T18:58:23.345Z,1.23
2022-08-28T19:00:51.266Z,1.23
2022-08-28T19:03:17.887Z,1.17
2022-08-28T19:05:44.663Z,1.05
2022-08-28T19:08:12.052Z,1.13
2022-08-28T19:10:40.532Z,0.90
2022-08-28T19:13:08.005Z,1.13
2022-08-28T19:15:35.808Z,1.05
2022-08-28T19:18:05.219Z,1.52
2022-08-28T19:20:33.107Z,1.30
2022-08-28T19:23:00.915Z,1.10
2022-08-28T19:25:30.595Z,1.35
2022-08-28T19:27:59.445Z,1.65
2022-08-28T19:30:28.835Z,1.67
2022-08-28T19:32:55.591Z,1.20
2022-08-28T19:35:24.210Z,1.30
2022-08-28T19:37:53.335Z,1.20
2022-08-28T19:40:22.320Z,1.50
2022-08-28T19:42:51.727Z,1.50
2022-08-28T19:45:19.665Z,1.20
2022-08-28T19:47:47.118Z,1.35
2022-08-28T19:50:15.055Z,1.45
2022-08-28T19:52:43.259Z,1.08
2022-08-28T19:55:17.679Z,1.02
2022-08-28T19:57:44.425Z,1.20
2022-08-28T20:00:11.864Z,1.13
2022-08-28T20:02:38.587Z,1.40
2022-08-28T20:05:06.959Z,1.70
2022-08-28T20:07:33.618Z,2.35
2022-08-28T20:10:01.088Z,1.15
2022-08-28T20:12:28.546Z,1.38
2022-08-28T20:14:59.024Z,1.40
2022-08-28T20:17:29.487Z,1.30
2022-08-28T20:20:02.366Z,1.73
2022-08-28T20:22:31.844Z,1.40
2022-08-28T20:24:59.783Z,1.20
2022-08-28T20:27:27.019Z,1.45
2022-08-28T20:29:53.810Z,1.67
2022-08-28T20:32:20.584Z,1.52
2022-08-28T20:34:47.277Z,1.25
2022-08-28T20:37:14.238Z,2.00
2022-08-28T20:39:41.774Z,1.67
2022-08-28T20:42:13.640Z,1.60
2022-08-28T20:44:40.628Z,1.52
2022-08-28T20:47:07.516Z,1.02
2022-08-28T20:49:39.305Z,2.70
2022-08-28T20:52:06.933Z,1.20
2022-08-28T20:54:38.708Z,1.40
2022-08-28T20:57:09.267Z,1.17
2022-08-28T20:59:39.911Z,1.50
2022-08-28T21:02:12.771Z,1.65
2022-08-28T21:04:43.269Z,1.50
2022-08-28T21:07:11.200Z,1.88
2022-08-28T21:10:04.585Z,1.70
2022-08-28T21:12:24.805Z,1.65
2022-08-28T21:15:13.178Z,2.60
2022-08-28T21:17:41.329Z,1.70
2022-08-28T21:20:11.905Z,1.35
2022-08-28T21:22:39.696Z,1.35
2022-08-28T21:25:08.539Z,1.33
2022-08-28T21:27:35.758Z,1.55
2022-08-28T21:30:03.778Z,1.60
2022-08-28T21:32:32.660Z,1.70
2022-08-28T21:35:01.045Z,1.50
2022-08-28T21:37:28.423Z,1.50
2022-08-28T21:39:56.564Z,1.30
2022-08-28T21:42:23.554Z,1.67
2022-08-28T21:44:51.975Z,1.30
2022-08-28T21:47:21.521Z,1.73
2022-08-28T21:49:50.203Z,1.38
2022-08-28T21:52:19.344Z,1.60
2022-08-28T21:54:46.046Z,1.80
2022-08-28T21:57:12.811Z,1.33
2022-08-28T21:59:39.837Z,1.48
2022-08-28T22:02:06.570Z,1.30
2022-08-28T22:04:33.837Z,1.38
2022-08-28T22:07:00.489Z,1.52
2022-08-28T22:09:27.163Z,1.60
2022-08-28T22:11:53.962Z,1.50
2022-08-28T22:14:22.468Z,1.45
2022-08-28T22:16:49.113Z,1.13
2022-08-28T22:19:15.744Z,1.45
2022-08-28T22:22:20.808Z,1.33
2022-08-28T22:24:47.526Z,1.63
2022-08-28T22:27:15.084Z,1.50
2022-08-28T22:29:41.725Z,1.35
2022-08-28T22:32:09.229Z,1.80
2022-08-28T22:34:40.565Z,2.00
2022-08-28T22:37:08.139Z,1.80
2022-08-28T22:39:34.961Z,1.38
2022-08-28T22:42:02.109Z,1.70
2022-08-28T22:44:29.594Z,1.40
2022-08-28T22:46:56.267Z,2.00
2022-08-28T22:49:23.033Z,1.95
2022-08-28T22:51:49.707Z,1.77
2022-08-28T22:54:16.911Z,1.48
2022-08-28T22:56:43.737Z,1.70
2022-08-28T22:59:10.944Z,1.98
2022-08-28T23:01:37.999Z,1.75
2022-08-28T23:04:04.867Z,1.95
2022-08-28T23:06:32.358Z,1.67
2022-08-28T23:08:58.924Z,2.00
2022-08-28T23:11:25.949Z,2.30
2022-08-28T23:13:52.573Z,2.85
2022-08-28T23:16:24.031Z,2.38
2022-08-28T23:19:07.517Z,2.60
2022-08-28T23:21:35.687Z,2.35
2022-08-28T23:24:09.641Z,3.08
2022-08-28T23:26:36.365Z,2.63
2022-08-28T23:29:03.729Z,2.70
2022-08-28T23:31:30.356Z,2.50
2022-08-28T23:33:56.979Z,2.20
2022-08-28T23:36:23.822Z,2.15
2022-08-28T23:38:50.672Z,1.98
2022-08-28T23:41:18.645Z,1.60
2022-08-28T23:43:45.881Z,1.80
2022-08-28T23:46:20.109Z,1.67
2022-08-28T23:48:50.096Z,1.40
2022-08-28T23:51:16.995Z,1.70
2022-08-28T23:53:44.024Z,1.25
2022-08-28T23:56:11.378Z,1.42
2022-08-28T23:58:39.736Z,1.20
